createdAt,value
2024-04-21T00:01:28.500Z,8.23
2024-04-21T00:03:55.749Z,11.45
2024-04-21T00:06:22.762Z,9.52
2024-04-21T00:08:49.588Z,8.77
2024-04-21T00:11:16.449Z,5.65
2024-04-21T00:13:43.293Z,6.55
2024-04-21T00:16:10.240Z,5.50
2024-04-21T00:18:37.103Z,4.45
2024-04-21T00:21:04.265Z,4.88
2024-04-21T00:23:33.093Z,4.80
2024-04-21T00:26:00.820Z,6.32
2024-04-21T00:28:30.429Z,7.03
2024-04-21T00:30:57.879Z,9.15
2024-04-21T00:33:24.871Z,5.45
2024-04-21T00:35:51.752Z,6.38
2024-04-21T00:38:18.571Z,7.13
2024-04-21T00:40:45.390Z,5.18
2024-04-21T00:43:12.773Z,6.13
2024-04-21T00:45:47.323Z,6.35
2024-04-21T00:48:14.998Z,6.57
2024-04-21T00:50:46.822Z,7.72
2024-04-21T00:53:15.934Z,7.65
2024-04-21T00:55:42.879Z,7.00
2024-04-21T00:58:10.770Z,8.70
2024-04-21T01:00:37.986Z,9.23
2024-04-21T01:03:05.601Z,10.20
2024-04-21T01:05:32.840Z,10.23
2024-04-21T01:08:00.595Z,7.13
2024-04-21T01:10:27.481Z,9.85
2024-04-21T01:12:54.362Z,6.22
2024-04-21T01:15:21.170Z,7.63
2024-04-21T01:17:48.227Z,8.38
2024-04-21T01:20:16.151Z,6.55
2024-04-21T01:22:50.645Z,5.55
2024-04-21T01:25:18.023Z,6.75
2024-04-21T01:27:45.262Z,8.23
2024-04-21T01:30:12.302Z,11.93
2024-04-21T01:32:40.750Z,9.32
2024-04-21T01:35:07.960Z,10.50
2024-04-21T01:37:36.470Z,7.53
2024-04-21T01:40:04.597Z,6.57
2024-04-21T01:42:31.465Z,6.15
2024-04-21T01:44:58.328Z,8.88
2024-04-21T01:47:25.357Z,7.15
2024-04-21T01:49:52.240Z,8.85
2024-04-21T01:52:19.116Z,11.05
2024-04-21T01:54:46.029Z,10.70
2024-04-21T01:57:12.865Z,10.50
2024-04-21T01:59:39.657Z,7.50
2024-04-21T02:02:06.471Z,10.63
2024-04-21T02:04:33.373Z,6.70
2024-04-21T02:07:00.210Z,11.27
2024-04-21T02:09:27.075Z,9.25
2024-04-21T02:11:53.873Z,11.18
2024-04-21T02:14:20.648Z,13.38
2024-04-21T02:16:47.449Z,9.05
2024-04-21T02:19:14.280Z,11.25
2024-04-21T02:21:41.132Z,9.77
2024-04-21T02:24:08.128Z,10.20
2024-04-21T02:26:34.947Z,8.13
2024-04-21T02:29:01.759Z,8.20
2024-04-21T02:31:29.200Z,7.07
2024-04-21T02:33:56.114Z,7.50
2024-04-21T02:36:22.990Z,9.23
2024-04-21T02:38:49.771Z,9.38
2024-04-21T02:41:16.563Z,12.00
2024-04-21T02:43:43.332Z,8.30
2024-04-21T02:46:11.626Z,11.07
2024-04-21T02:48:38.482Z,10.68
2024-04-21T02:51:05.374Z,12.23
2024-04-21T02:53:32.163Z,9.23
2024-04-21T02:55:59.532Z,5.50
2024-04-21T02:58:26.428Z,4.70
2024-04-21T03:00:53.477Z,2.70
2024-04-21T03:03:21.255Z,3.92
2024-04-21T03:05:58.444Z,3.00
2024-04-21T03:08:25.986Z,2.75
2024-04-21T03:10:52.845Z,2.95
2024-04-21T03:13:20.351Z,4.35
2024-04-21T03:15:47.445Z,2.40
2024-04-21T03:18:14.268Z,3.15
2024-04-21T03:20:41.129Z,4.63
2024-04-21T03:23:08.436Z,4.10
2024-04-21T03:25:36.266Z,3.45
2024-04-21T03:28:03.190Z,3.40
2024-04-21T03:30:29.981Z,3.90
2024-04-21T03:32:56.863Z,3.50
2024-04-21T03:35:23.779Z,5.85
2024-04-21T03:37:50.635Z,3.28
2024-04-21T03:40:17.567Z,6.78
2024-04-21T03:42:44.391Z,4.28
2024-04-21T03:45:11.218Z,5.65
2024-04-21T03:47:38.097Z,6.32
2024-04-21T03:50:05.447Z,3.95
2024-04-21T03:52:32.223Z,4.50
2024-04-21T03:54:59.209Z,5.75
2024-04-21T03:57:31.261Z,3.63
2024-04-21T03:59:58.250Z,3.30
2024-04-21T04:02:25.062Z,5.60
2024-04-21T04:04:51.969Z,5.18
2024-04-21T04:07:19.111Z,7.93
2024-04-21T04:09:46.317Z,4.95
2024-04-21T04:12:13.151Z,6.57
2024-04-21T04:14:39.888Z,6.30
2024-04-21T04:17:06.669Z,4.93
2024-04-21T04:19:33.458Z,4.32
2024-04-21T04:22:00.264Z,4.85
2024-04-21T04:24:27.068Z,7.82
2024-04-21T04:26:53.918Z,5.90
2024-04-21T04:29:21.110Z,5.15
2024-04-21T04:31:47.879Z,4.53
2024-04-21T04:34:16.146Z,3.83
2024-04-21T04:36:43.111Z,3.80
2024-04-21T04:39:10.388Z,5.25
2024-04-21T04:41:37.200Z,4.63
2024-04-21T04:44:03.986Z,4.47
2024-04-21T04:46:30.791Z,4.22
2024-04-21T04:48:57.588Z,3.90
2024-04-21T04:51:24.515Z,6.45
2024-04-21T04:53:51.301Z,5.28
2024-04-21T04:56:18.104Z,4.85
2024-04-21T04:58:44.864Z,5.97
2024-04-21T05:01:11.733Z,3.85
2024-04-21T05:03:38.560Z,4.47
2024-04-21T05:06:05.474Z,4.35
2024-04-21T05:08:32.224Z,4.13
2024-04-21T05:10:59.027Z,4.22
2024-04-21T05:13:25.857Z,3.63
2024-04-21T05:15:55.274Z,3.30
2024-04-21T05:18:22.337Z,4.15
2024-04-21T05:20:49.103Z,3.97
2024-04-21T05:23:15.897Z,4.15
2024-04-21T05:25:42.647Z,3.58
2024-04-21T05:28:09.530Z,4.43
2024-04-21T05:30:38.116Z,4.35
2024-04-21T05:33:05.112Z,4.10
2024-04-21T05:35:31.966Z,5.15
2024-04-21T05:37:59.602Z,3.92
2024-04-21T05:40:26.472Z,5.43
2024-04-21T05:42:53.417Z,3.95
2024-04-21T05:45:20.363Z,5.28
2024-04-21T05:47:47.375Z,5.57
2024-04-21T05:50:14.372Z,4.25
2024-04-21T05:52:41.173Z,4.65
2024-04-21T05:55:08.084Z,4.38
2024-04-21T05:57:35.017Z,4.43
2024-04-21T06:00:01.987Z,3.75
2024-04-21T06:02:31.258Z,3.70
2024-04-21T06:04:58.113Z,5.72
2024-04-21T06:07:25.056Z,5.53
2024-04-21T06:09:53.834Z,4.47
2024-04-21T06:12:20.650Z,4.03
2024-04-21T06:14:47.423Z,5.20
2024-04-21T06:17:14.512Z,5.38
2024-04-21T06:19:41.330Z,2.92
2024-04-21T06:22:08.421Z,4.50
2024-04-21T06:24:35.233Z,4.00
2024-04-21T06:27:02.612Z,3.58
2024-04-21T06:29:29.405Z,3.70
2024-04-21T06:31:56.223Z,3.97
2024-04-21T06:34:23.150Z,4.03
2024-04-21T06:36:50.002Z,4.95
2024-04-21T06:39:16.772Z,5.85
2024-04-21T06:41:43.558Z,5.40
2024-04-21T06:44:10.312Z,5.68
2024-04-21T06:46:37.094Z,7.68
2024-04-21T06:49:03.968Z,7.90
2024-04-21T06:51:30.812Z,4.82
2024-04-21T06:53:57.643Z,4.70
2024-04-21T06:56:24.490Z,6.60
2024-04-21T06:58:51.305Z,5.72
2024-04-21T07:01:18.184Z,5.43
2024-04-21T07:03:45.448Z,6.03
2024-04-21T07:06:12.175Z,8.88
2024-04-21T07:08:38.972Z,7.68
2024-04-21T07:11:06.820Z,9.23
2024-04-21T07:13:33.846Z,7.78
2024-04-21T07:16:00.768Z,9.45
2024-04-21T07:18:27.685Z,9.20
2024-04-21T07:20:54.479Z,8.60
2024-04-21T07:23:21.273Z,8.25
2024-04-21T07:25:48.031Z,13.05
2024-04-21T07:28:14.814Z,9.48
2024-04-21T07:30:41.693Z,8.93
2024-04-21T07:33:08.521Z,6.85
2024-04-21T07:35:35.419Z,8.68
2024-04-21T07:38:05.124Z,10.20
2024-04-21T07:40:33.438Z,6.88
2024-04-21T07:43:00.348Z,7.22
2024-04-21T07:45:27.340Z,10.15
2024-04-21T07:47:54.288Z,7.35
2024-04-21T07:50:21.123Z,10.25
2024-04-21T07:52:48.022Z,6.78
2024-04-21T07:55:14.950Z,6.22
2024-04-21T07:57:41.757Z,7.97
2024-04-21T08:00:09.488Z,9.65
2024-04-21T08:05:06.400Z,6.40
2024-04-21T08:07:33.279Z,8.00
2024-04-21T08:10:00.057Z,5.22
2024-04-21T08:12:26.883Z,6.80
2024-04-21T08:14:53.644Z,7.22
2024-04-21T08:17:20.457Z,5.75
2024-04-21T08:19:47.236Z,5.93
2024-04-21T08:22:14.143Z,8.35
2024-04-21T08:24:41.039Z,9.13
2024-04-21T08:27:07.787Z,8.02
2024-04-21T08:29:34.542Z,5.35
2024-04-21T08:32:01.390Z,6.07
2024-04-21T08:34:28.405Z,9.75
2024-04-21T08:36:55.332Z,7.32
2024-04-21T08:39:22.189Z,6.78
2024-04-21T08:41:48.990Z,8.35
2024-04-21T08:44:16.270Z,8.63
2024-04-21T08:46:43.859Z,7.18
2024-04-21T08:49:11.193Z,7.25
2024-04-21T08:51:40.126Z,5.88
2024-04-21T08:54:06.989Z,4.72
2024-04-21T08:56:34.042Z,8.68
2024-04-21T08:59:03.645Z,6.40
2024-04-21T09:01:31.104Z,4.55
2024-04-21T09:03:58.327Z,7.13
2024-04-21T09:06:27.376Z,6.60
2024-04-21T09:08:55.199Z,6.88
2024-04-21T09:11:22.268Z,7.28
2024-04-21T09:13:49.977Z,7.18
2024-04-21T09:16:16.877Z,4.80
2024-04-21T09:18:43.773Z,8.18
2024-04-21T09:21:11.489Z,5.65
2024-04-21T09:23:41.720Z,4.50
2024-04-21T09:26:12.405Z,7.30
2024-04-21T09:28:39.967Z,7.40
2024-04-21T09:31:06.746Z,5.30
2024-04-21T09:33:34.292Z,6.88
2024-04-21T09:36:01.330Z,6.47
2024-04-21T09:38:30.107Z,6.53
2024-04-21T09:40:58.379Z,5.57
2024-04-21T09:43:28.151Z,6.00
2024-04-21T09:45:55.173Z,6.53
2024-04-21T09:48:23.159Z,5.80
2024-04-21T09:50:50.390Z,6.43
2024-04-21T09:53:20.064Z,5.93
2024-04-21T09:55:49.064Z,5.45
2024-04-21T09:58:18.293Z,6.03
2024-04-21T10:00:50.148Z,5.20
2024-04-21T10:03:18.265Z,7.05
2024-04-21T10:05:45.646Z,5.40
2024-04-21T10:08:12.757Z,5.40
2024-04-21T10:10:41.384Z,4.38
2024-04-21T10:13:08.738Z,5.10
2024-04-21T10:15:36.988Z,4.70
2024-04-21T10:18:04.176Z,4.20
2024-04-21T10:20:38.696Z,5.38
2024-04-21T10:23:10.804Z,4.35
2024-04-21T10:25:40.544Z,4.00
2024-04-21T10:28:08.183Z,4.35
2024-04-21T10:30:36.886Z,5.57
2024-04-21T10:33:10.825Z,4.63
2024-04-21T10:35:39.097Z,4.45
2024-04-21T10:38:14.237Z,6.00
2024-04-21T10:40:50.146Z,5.53
2024-04-21T10:43:18.704Z,4.72
2024-04-21T10:48:12.518Z,4.53
2024-04-21T10:50:41.064Z,5.18
2024-04-21T10:53:08.846Z,5.38
2024-04-21T10:55:36.778Z,4.57
2024-04-21T10:58:08.036Z,5.63
2024-04-21T11:00:39.132Z,5.25
2024-04-21T11:03:07.225Z,3.75
2024-04-21T11:05:45.348Z,5.40
2024-04-21T11:08:12.328Z,4.65
2024-04-21T11:10:42.190Z,4.35
2024-04-21T11:13:09.120Z,4.22
2024-04-21T11:15:42.970Z,5.38
2024-04-21T11:18:10.187Z,4.38
2024-04-21T11:20:37.551Z,5.28
2024-04-21T11:23:04.898Z,5.25
2024-04-21T11:25:31.949Z,4.25
2024-04-21T11:27:58.769Z,5.78
2024-04-21T11:30:26.178Z,4.90
2024-04-21T11:32:53.143Z,5.07
2024-04-21T11:35:20.581Z,4.93
2024-04-21T11:37:50.126Z,5.25
2024-04-21T11:40:19.085Z,5.57
2024-04-21T11:42:46.620Z,6.50
2024-04-21T11:45:24.078Z,5.55
2024-04-21T11:47:55.596Z,4.97
2024-04-21T11:50:23.532Z,5.40
2024-04-21T11:52:50.409Z,4.78
2024-04-21T11:55:17.401Z,5.20
2024-04-21T11:57:44.417Z,4.88
2024-04-21T12:00:11.917Z,4.75
2024-04-21T12:02:38.657Z,4.00
2024-04-21T12:05:05.617Z,5.20
2024-04-21T12:07:32.466Z,4.95
2024-04-21T12:09:59.522Z,5.45
2024-04-21T12:12:26.295Z,4.55
2024-04-21T12:14:53.107Z,4.70
2024-04-21T12:17:22.815Z,4.68
2024-04-21T12:19:53.499Z,5.22
2024-04-21T12:22:21.459Z,5.35
2024-04-21T12:24:48.298Z,5.13
2024-04-21T12:27:16.096Z,4.32
2024-04-21T12:29:42.843Z,4.53
2024-04-21T12:32:09.644Z,5.15
2024-04-21T12:34:36.471Z,4.65
2024-04-21T12:37:03.314Z,4.10
2024-04-21T12:39:30.158Z,5.15
2024-04-21T12:41:57.383Z,4.05
2024-04-21T12:44:24.188Z,4.70
2024-04-21T12:46:51.074Z,5.13
2024-04-21T12:49:18.008Z,4.20
2024-04-21T12:51:47.462Z,3.63
2024-04-21T12:54:16.544Z,4.05
2024-04-21T12:56:44.607Z,5.35
2024-04-21T12:59:11.376Z,5.82
2024-04-21T13:01:38.237Z,4.70
2024-04-21T13:04:07.135Z,5.05
2024-04-21T13:06:34.044Z,4.30
2024-04-21T13:09:00.926Z,5.45
2024-04-21T13:11:28.184Z,4.18
2024-04-21T13:13:55.036Z,4.93
2024-04-21T13:16:21.896Z,4.15
2024-04-21T13:18:48.718Z,4.25
2024-04-21T13:21:15.571Z,4.47
2024-04-21T13:23:43.451Z,4.63
2024-04-21T13:26:11.094Z,4.63
2024-04-21T13:28:38.018Z,3.60
2024-04-21T13:31:04.906Z,4.43
2024-04-21T13:33:31.720Z,4.30
2024-04-21T13:35:58.584Z,4.55
2024-04-21T13:38:25.393Z,5.45
2024-04-21T13:40:52.258Z,3.80
2024-04-21T13:43:19.169Z,4.00
2024-04-21T13:45:46.019Z,4.38
2024-04-21T13:48:14.336Z,4.25
2024-04-21T13:50:41.490Z,4.72
2024-04-21T13:53:09.020Z,3.88
2024-04-21T13:55:36.004Z,4.00
2024-04-21T13:58:03.109Z,3.90
2024-04-21T14:00:29.924Z,4.03
2024-04-21T14:02:56.819Z,3.85
2024-04-21T14:05:23.640Z,3.80
2024-04-21T14:07:52.094Z,3.63
2024-04-21T14:10:19.019Z,4.47
2024-04-21T14:12:45.975Z,3.60
2024-04-21T14:15:12.743Z,4.97
2024-04-21T14:17:39.636Z,3.90
2024-04-21T14:20:07.300Z,4.63
2024-04-21T14:22:34.176Z,3.92
2024-04-21T14:25:00.975Z,4.07
2024-04-21T14:27:27.739Z,5.93
2024-04-21T14:29:56.467Z,3.92
2024-04-21T14:32:26.637Z,4.22
2024-04-21T14:34:54.198Z,4.78
2024-04-21T14:37:21.005Z,4.85
2024-04-21T14:39:47.768Z,3.90
2024-04-21T14:42:16.081Z,4.20
2024-04-21T14:44:48.764Z,5.63
2024-04-21T14:47:18.682Z,4.30
2024-04-21T14:49:48.429Z,4.38
2024-04-21T14:52:15.543Z,4.72
2024-04-21T14:54:42.357Z,4.65
2024-04-21T14:57:09.140Z,5.85
2024-04-21T14:59:35.868Z,4.25
2024-04-21T15:02:02.653Z,4.93
2024-04-21T15:04:31.458Z,7.13
2024-04-21T15:07:01.695Z,4.60
2024-04-21T15:09:28.502Z,5.05
2024-04-21T15:11:55.227Z,5.07
2024-04-21T15:14:21.986Z,5.38
2024-04-21T15:16:48.971Z,4.55
2024-04-21T15:19:15.814Z,5.30
2024-04-21T15:21:42.626Z,5.30
2024-04-21T15:24:09.474Z,5.50
2024-04-21T15:26:36.290Z,5.53
2024-04-21T15:29:03.237Z,5.57
2024-04-21T15:31:30.054Z,4.40
2024-04-21T15:33:56.920Z,4.22
2024-04-21T15:36:23.759Z,3.90
2024-04-21T15:38:50.604Z,4.35
2024-04-21T15:41:17.328Z,5.13
2024-04-21T15:43:44.091Z,4.57
2024-04-21T15:46:11.808Z,4.05
2024-04-21T15:48:38.606Z,4.13
2024-04-21T15:51:06.942Z,4.40
2024-04-21T15:53:33.979Z,5.05
2024-04-21T15:56:03.292Z,4.68
2024-04-21T15:58:31.013Z,5.00
2024-04-21T16:00:58.201Z,5.38
2024-04-21T16:03:25.180Z,5.20
2024-04-21T16:05:52.055Z,4.85
2024-04-21T16:08:18.853Z,6.10
2024-04-21T16:10:46.227Z,5.97
2024-04-21T16:13:13.339Z,4.05
2024-04-21T16:15:40.142Z,4.45
2024-04-21T16:18:07.028Z,5.82
2024-04-21T16:20:33.898Z,5.28
2024-04-21T16:23:01.602Z,4.97
2024-04-21T16:25:28.418Z,4.78
2024-04-21T16:27:55.201Z,4.32
2024-04-21T16:30:22.057Z,5.45
2024-04-21T16:32:49.053Z,4.93
2024-04-21T16:35:16.145Z,5.95
2024-04-21T16:37:43.156Z,5.68
2024-04-21T16:40:10.506Z,5.15
2024-04-21T16:42:37.533Z,6.10
2024-04-21T16:45:04.907Z,4.97
2024-04-21T16:47:36.172Z,5.70
2024-04-21T16:50:03.468Z,6.35
2024-04-21T16:52:30.835Z,6.40
2024-04-21T16:54:57.978Z,6.07
2024-04-21T16:57:26.018Z,6.00
2024-04-21T16:59:53.151Z,5.90
2024-04-21T17:02:20.123Z,6.38
2024-04-21T17:04:49.154Z,6.10
2024-04-21T17:07:20.910Z,6.00
2024-04-21T17:09:51.402Z,5.18
2024-04-21T17:12:19.833Z,5.35
2024-04-21T17:14:46.573Z,6.13
2024-04-21T17:17:13.523Z,6.70
2024-04-21T17:19:40.391Z,5.07
2024-04-21T17:22:07.249Z,6.20
2024-04-21T17:24:34.055Z,5.65
2024-04-21T17:27:00.825Z,5.60
2024-04-21T17:29:27.628Z,5.00
2024-04-21T17:31:54.359Z,5.18
2024-04-21T17:34:21.146Z,6.88
2024-04-21T17:36:47.954Z,4.95
2024-04-21T17:39:14.721Z,5.63
2024-04-21T17:41:41.483Z,5.55
2024-04-21T17:44:10.584Z,5.45
2024-04-21T17:46:38.306Z,4.95
2024-04-21T17:49:06.494Z,6.13
2024-04-21T17:51:33.355Z,5.03
2024-04-21T17:54:00.143Z,4.97
2024-04-21T17:56:26.944Z,4.28
2024-04-21T17:58:53.659Z,4.85
2024-04-21T18:01:20.504Z,6.15
2024-04-21T18:03:48.166Z,4.88
2024-04-21T18:06:15.089Z,5.07
2024-04-21T18:08:41.910Z,4.80
2024-04-21T18:11:08.773Z,5.95
2024-04-21T18:13:35.667Z,4.95
2024-04-21T18:16:03.509Z,5.47
2024-04-21T18:18:31.474Z,5.18
2024-04-21T18:20:58.492Z,5.93
2024-04-21T18:23:25.368Z,4.95
2024-04-21T18:25:52.182Z,6.05
2024-04-21T18:28:19.319Z,5.50
2024-04-21T18:30:47.326Z,5.47
2024-04-21T18:33:14.346Z,5.53
2024-04-21T18:35:41.268Z,4.90
2024-04-21T18:38:08.718Z,5.22
2024-04-21T18:40:38.656Z,5.60
2024-04-21T18:43:05.626Z,5.38
2024-04-21T18:45:32.430Z,5.55
2024-04-21T18:47:59.216Z,5.05
2024-04-21T18:50:26.081Z,5.82
2024-04-21T18:52:52.918Z,5.05
2024-04-21T18:55:19.850Z,4.93
2024-04-21T18:57:46.694Z,5.68
2024-04-21T19:00:13.800Z,5.63
2024-04-21T19:02:40.757Z,5.80
2024-04-21T19:05:07.738Z,5.90
2024-04-21T19:07:34.554Z,5.80
2024-04-21T19:10:08.128Z,7.47
2024-04-21T19:12:36.030Z,6.20
2024-04-21T19:15:03.907Z,7.47
2024-04-21T19:17:32.160Z,6.45
2024-04-21T19:19:59.288Z,8.13
2024-04-21T19:22:26.409Z,7.05
2024-04-21T19:24:53.176Z,6.63
2024-04-21T19:27:20.579Z,6.22
2024-04-21T19:29:48.299Z,7.72
2024-04-21T19:32:15.480Z,5.75
2024-04-21T19:34:45.739Z,6.80
2024-04-21T19:37:13.559Z,5.53
2024-04-21T19:39:40.383Z,6.32
2024-04-21T19:42:07.278Z,7.53
2024-04-21T19:44:34.657Z,6.32
2024-04-21T19:47:01.494Z,7.15
2024-04-21T19:49:29.312Z,8.00
2024-04-21T19:51:57.174Z,6.65
2024-04-21T19:54:29.795Z,6.18
2024-04-21T19:56:58.296Z,6.75
2024-04-21T19:59:25.212Z,8.80
2024-04-21T20:01:52.162Z,7.93
2024-04-21T20:04:19.195Z,6.55
2024-04-21T20:06:46.062Z,7.55
2024-04-21T20:09:13.658Z,7.63
2024-04-21T20:11:40.652Z,7.43
2024-04-21T20:14:07.457Z,7.15
2024-04-21T20:16:53.145Z,7.22
2024-04-21T20:19:20.009Z,6.63
2024-04-21T20:21:46.834Z,6.68
2024-04-21T20:24:13.633Z,6.75
2024-04-21T20:26:40.752Z,6.68
2024-04-21T20:29:07.640Z,6.85
2024-04-21T20:31:34.585Z,6.20
2024-04-21T20:34:01.680Z,7.55
2024-04-21T20:36:28.540Z,7.90
2024-04-21T20:38:55.684Z,6.40
2024-04-21T20:41:23.092Z,7.03
2024-04-21T20:43:51.817Z,6.10
2024-04-21T20:46:23.091Z,7.05
2024-04-21T20:48:51.592Z,7.22
2024-04-21T20:51:18.940Z,6.55
2024-04-21T20:53:46.055Z,8.10
2024-04-21T20:56:13.089Z,6.55
2024-04-21T20:58:49.305Z,7.53
2024-04-21T21:01:19.337Z,5.95
2024-04-21T21:03:46.373Z,6.50
2024-04-21T21:06:13.241Z,6.75
2024-04-21T21:08:40.108Z,6.97
2024-04-21T21:11:07.216Z,5.82
2024-04-21T21:13:34.313Z,6.65
2024-04-21T21:16:01.996Z,5.97
2024-04-21T21:18:29.477Z,6.47
2024-04-21T21:20:56.557Z,6.28
2024-04-21T21:23:24.795Z,6.97
2024-04-21T21:25:52.595Z,6.22
2024-04-21T21:28:24.162Z,6.82
2024-04-21T21:30:51.080Z,5.78
2024-04-21T21:33:19.332Z,6.57
2024-04-21T21:35:56.503Z,6.30
2024-04-21T21:40:51.739Z,6.85
2024-04-21T21:43:18.583Z,6.78
2024-04-21T21:45:45.408Z,6.97
2024-04-21T21:48:12.410Z,7.50
2024-04-21T21:50:39.252Z,9.52
2024-04-21T21:53:06.100Z,6.63
2024-04-21T21:55:32.931Z,7.03
2024-04-21T21:57:59.742Z,7.22
2024-04-21T22:00:27.877Z,7.28
2024-04-21T22:02:55.150Z,6.82
2024-04-21T22:05:21.950Z,8.40
2024-04-21T22:07:48.790Z,6.65
2024-04-21T22:10:15.754Z,7.47
2024-04-21T22:12:42.544Z,6.15
2024-04-21T22:15:09.447Z,6.97
2024-04-21T22:17:36.312Z,7.78
2024-04-21T22:20:03.946Z,8.52
2024-04-21T22:22:30.822Z,6.88
2024-04-21T22:24:57.686Z,6.80
2024-04-21T22:27:24.510Z,7.72
2024-04-21T22:29:51.382Z,7.85
2024-04-21T22:32:18.275Z,6.85
2024-04-21T22:34:45.191Z,7.50
2024-04-21T22:37:11.975Z,6.68
2024-04-21T22:39:38.742Z,7.55
2024-04-21T22:42:07.084Z,7.18
2024-04-21T22:44:34.067Z,7.50
2024-04-21T22:47:01.285Z,6.47
2024-04-21T22:49:28.134Z,8.05
2024-04-21T22:51:54.942Z,7.18
2024-04-21T22:54:21.792Z,6.97
2024-04-21T22:56:48.553Z,7.47
2024-04-21T22:59:15.339Z,8.80
2024-04-21T23:01:42.203Z,7.57
2024-04-21T23:04:09.111Z,6.65
2024-04-21T23:06:35.871Z,7.00
2024-04-21T23:09:02.658Z,6.68
2024-04-21T23:11:29.550Z,6.80
2024-04-21T23:13:56.463Z,7.30
2024-04-21T23:16:23.335Z,8.18
2024-04-21T23:18:50.292Z,8.23
2024-04-21T23:21:17.131Z,6.53
2024-04-21T23:23:43.908Z,8.27
2024-04-21T23:26:10.662Z,7.82
2024-04-21T23:28:37.513Z,9.50
2024-04-21T23:31:04.574Z,6.13
2024-04-21T23:33:31.475Z,6.32
2024-04-21T23:35:58.261Z,6.55
2024-04-21T23:38:25.072Z,5.70
2024-04-21T23:40:51.840Z,9.38
2024-04-21T23:43:18.684Z,8.52
2024-04-21T23:45:45.766Z,7.63
2024-04-21T23:48:13.108Z,7.10
2024-04-21T23:50:39.930Z,8.43
2024-04-21T23:53:06.714Z,7.05
2024-04-21T23:55:33.584Z,5.80
2024-04-21T23:58:00.481Z,6.45
